Time;durP1;ratioP1;P1;durP2;ratioP2;P2;SDS_P1;SDS_P2;PMS_P1;PMS_P2;Temp;Humidity;BMP_temperature;BMP_pressure;BME280_temperature;BME280_humidity;BME280_pressure;Samples;Min_cycle;Max_cycle;Signal;HPM_P1;HPM_P2
2020/12/01 00:00:26;;;;;;;12.15;6.53;;;4.90;99.90;;;;;;5110356;28;20023;-58
2020/12/01 00:02:52;;;;;;;10.88;6.22;;;4.80;99.90;;;;;;5110968;28;20031;-60
2020/12/01 00:05:21;;;;;;;16.17;6.93;;;4.80;99.90;;;;;;5100030;28;20374;-60
2020/12/01 00:07:46;;;;;;;10.50;6.50;;;4.80;99.90;;;;;;5092460;28;20040;-59
2020/12/01 00:10:13;;;;;;;13.85;7.00;;;4.80;99.90;;;;;;5090471;28;20141;-60
2020/12/01 00:12:41;;;;;;;11.73;6.60;;;4.80;99.90;;;;;;5089990;28;20032;-59
2020/12/01 00:15:07;;;;;;;14.82;6.95;;;4.80;99.90;;;;;;5091121;28;20036;-59
2020/12/01 00:17:33;;;;;;;10.15;6.68;;;4.80;99.90;;;;;;5090609;28;20398;-58
2020/12/01 00:19:59;;;;;;;11.65;6.63;;;4.80;99.90;;;;;;5092463;28;20027;-59
2020/12/01 00:22:24;;;;;;;12.13;6.95;;;4.80;99.90;;;;;;5109990;28;20034;-59
2020/12/01 00:24:49;;;;;;;10.93;6.72;;;4.80;99.90;;;;;;5090180;28;20024;-59
2020/12/01 00:27:15;;;;;;;12.43;6.63;;;4.80;99.90;;;;;;5089944;28;20490;-59
2020/12/01 00:29:41;;;;;;;14.40;7.07;;;4.80;99.90;;;;;;5089911;28;20051;-59
2020/12/01 00:32:06;;;;;;;10.50;6.70;;;4.80;99.90;;;;;;5104621;28;20039;-59
2020/12/01 00:34:32;;;;;;;15.60;6.80;;;4.80;99.90;;;;;;5109746;28;20040;-59
2020/12/01 00:36:58;;;;;;;11.55;6.25;;;4.80;99.90;;;;;;5129567;27;20035;-59
2020/12/01 00:39:23;;;;;;;11.50;6.68;;;4.80;99.90;;;;;;5104560;27;20028;-59
2020/12/01 00:41:51;;;;;;;12.63;6.70;;;4.80;99.90;;;;;;5089581;28;20028;-59
2020/12/01 00:44:18;;;;;;;12.85;7.50;;;4.80;99.90;;;;;;5090128;28;20078;-59
2020/12/01 00:46:44;;;;;;;10.32;6.40;;;4.80;99.90;;;;;;5089593;28;20032;-58
2020/12/01 00:49:10;;;;;;;10.32;6.20;;;4.80;99.90;;;;;;5093178;28;20050;-60
2020/12/01 00:51:36;;;;;;;13.95;7.32;;;4.80;99.90;;;;;;5126154;27;20039;-59
2020/12/01 00:54:01;;;;;;;12.25;6.72;;;4.70;99.90;;;;;;5114226;27;20036;-60
2020/12/01 00:56:27;;;;;;;16.00;7.97;;;4.80;99.90;;;;;;5109267;28;20027;-60
2020/12/01 00:58:52;;;;;;;14.55;7.50;;;4.80;99.90;;;;;;5110164;28;20024;-60
2020/12/01 01:01:18;;;;;;;14.98;8.00;;;4.70;99.90;;;;;;5093752;28;20024;-60
2020/12/01 01:03:44;;;;;;;13.55;7.43;;;4.80;99.90;;;;;;5109684;28;20024;-58
2020/12/01 01:06:11;;;;;;;13.88;7.57;;;4.70;99.90;;;;;;5120766;27;20027;-59
2020/12/01 01:08:38;;;;;;;14.20;8.18;;;4.70;99.90;;;;;;5104641;27;20039;-59
2020/12/01 01:11:05;;;;;;;14.77;8.27;;;4.70;99.90;;;;;;5089161;28;20475;-60
2020/12/01 01:13:30;;;;;;;15.95;8.32;;;4.80;99.90;;;;;;5092807;28;20371;-60
2020/12/01 01:15:56;;;;;;;23.40;8.55;;;4.70;99.90;;;;;;5096870;28;20043;-59
2020/12/01 01:18:22;;;;;;;16.05;8.48;;;4.70;99.90;;;;;;5089268;28;20463;-59
2020/12/01 01:20:47;;;;;;;13.90;7.70;;;4.70;99.90;;;;;;5098150;28;20020;-57
2020/12/01 01:23:13;;;;;;;13.77;8.02;;;4.70;99.90;;;;;;5108848;28;20031;-58
2020/12/01 01:25:38;;;;;;;14.70;8.38;;;4.70;99.90;;;;;;5108131;28;20032;-59
2020/12/01 01:28:04;;;;;;;15.50;8.65;;;4.70;99.90;;;;;;5109356;28;20028;-59
2020/12/01 01:30:30;;;;;;;17.92;8.80;;;4.80;99.90;;;;;;5109097;28;20066;-59
2020/12/01 01:32:55;;;;;;;15.77;7.90;;;4.80;99.90;;;;;;5094580;28;20088;-60
2020/12/01 01:35:21;;;;;;;14.45;7.95;;;4.80;99.90;;;;;;5094008;28;20019;-59
2020/12/01 01:37:46;;;;;;;15.05;8.18;;;4.90;99.90;;;;;;5108778;28;20600;-59
2020/12/01 01:40:22;;;;;;;15.02;7.60;;;4.90;99.90;;;;;;5109714;28;20026;-60
2020/12/01 01:42:48;;;;;;;15.18;7.80;;;4.90;99.90;;;;;;5104425;28;20386;-58
2020/12/01 01:45:13;;;;;;;14.57;8.35;;;4.90;99.90;;;;;;5088611;28;20024;-57
2020/12/01 01:47:40;;;;;;;13.52;7.95;;;4.90;99.90;;;;;;5087973;28;20036;-57
2020/12/01 01:50:18;;;;;;;15.13;8.35;;;4.90;99.90;;;;;;5091734;28;20035;-59
2020/12/01 01:52:48;;;;;;;11.85;6.93;;;4.90;99.90;;;;;;5103880;28;20036;-58
2020/12/01 01:55:34;;;;;;;11.02;6.47;;;4.90;99.90;;;;;;5088447;28;20814;-58
2020/12/01 01:58:04;;;;;;;10.07;5.65;;;5.00;99.90;;;;;;5102044;28;20482;-58
2020/12/01 02:00:58;;;;;;;8.15;5.57;;;5.00;99.90;;;;;;5107354;28;20026;-57
2020/12/01 02:03:44;;;;;;;8.35;5.03;;;5.00;99.90;;;;;;5108781;28;20490;-58
2020/12/01 02:06:26;;;;;;;12.88;5.20;;;5.00;99.90;;;;;;5100559;28;20055;-58
2020/12/01 02:09:05;;;;;;;12.40;5.20;;;5.00;99.90;;;;;;5108682;28;20031;-58
2020/12/01 02:11:32;;;;;;;8.73;4.78;;;5.00;99.90;;;;;;5105747;28;20055;-58
2020/12/01 02:14:15;;;;;;;7.90;4.97;;;5.00;99.90;;;;;;5088831;28;20020;-57
2020/12/01 02:16:47;;;;;;;7.80;4.47;;;5.10;99.90;;;;;;5090910;28;20017;-58
2020/12/01 02:19:18;;;;;;;8.32;5.15;;;5.00;99.90;;;;;;5101585;28;20028;-58
2020/12/01 02:21:43;;;;;;;7.28;4.72;;;5.10;99.90;;;;;;5127366;27;20473;-57
2020/12/01 02:24:15;;;;;;;8.98;5.50;;;5.10;99.90;;;;;;5115726;27;20072;-57
2020/12/01 02:26:42;;;;;;;9.63;5.25;;;5.10;99.90;;;;;;5105032;28;20077;-56
2020/12/01 02:29:12;;;;;;;10.88;4.70;;;5.10;99.90;;;;;;5092564;28;20493;-58
2020/12/01 02:31:38;;;;;;;8.07;4.93;;;5.10;99.90;;;;;;5092192;28;20052;-58
2020/12/01 02:34:11;;;;;;;8.65;5.28;;;5.10;99.90;;;;;;5095887;28;20387;-57
2020/12/01 02:36:37;;;;;;;7.40;5.05;;;5.00;99.90;;;;;;5107846;28;20489;-57
2020/12/01 02:39:05;;;;;;;7.82;5.10;;;5.00;99.90;;;;;;5112084;28;20027;-57
2020/12/01 02:41:31;;;;;;;9.18;5.35;;;5.00;99.90;;;;;;5111554;28;20124;-57
2020/12/01 02:43:57;;;;;;;13.57;6.45;;;5.00;99.90;;;;;;5098318;28;20048;-57
2020/12/01 02:46:23;;;;;;;11.32;5.75;;;5.00;99.90;;;;;;5092231;28;20029;-59
2020/12/01 02:48:48;;;;;;;13.60;5.65;;;5.00;99.90;;;;;;5092571;28;20028;-56
2020/12/01 02:51:15;;;;;;;9.38;5.90;;;5.00;99.90;;;;;;5093077;28;20441;-58
2020/12/01 02:53:40;;;;;;;9.27;6.22;;;5.00;99.90;;;;;;5092288;28;20082;-58
2020/12/01 02:56:06;;;;;;;15.63;7.25;;;5.10;99.90;;;;;;5090515;28;20035;-58
2020/12/01 02:58:31;;;;;;;19.45;9.40;;;5.10;99.90;;;;;;5092197;28;20035;-58
2020/12/01 03:00:57;;;;;;;21.88;10.77;;;5.10;99.90;;;;;;5091904;28;20024;-59
2020/12/01 03:03:22;;;;;;;32.65;14.25;;;5.10;99.90;;;;;;5091577;28;20023;-57
2020/12/01 03:05:48;;;;;;;47.95;20.60;;;5.20;99.90;;;;;;5111135;27;20027;-57
2020/12/01 03:08:13;;;;;;;44.78;18.60;;;5.30;99.90;;;;;;5107951;27;20028;-58
2020/12/01 03:10:39;;;;;;;41.10;18.63;;;5.30;99.90;;;;;;5111439;28;20027;-58
2020/12/01 03:13:04;;;;;;;41.20;19.95;;;5.40;99.90;;;;;;5111607;28;20030;-57
2020/12/01 03:15:30;;;;;;;40.90;20.05;;;5.40;99.90;;;;;;5111586;28;20516;-57
2020/12/01 03:17:55;;;;;;;43.65;19.55;;;5.50;99.90;;;;;;5111573;28;20035;-55
2020/12/01 03:20:21;;;;;;;43.50;17.45;;;5.50;99.90;;;;;;5110996;28;20055;-57
2020/12/01 03:22:46;;;;;;;47.88;21.77;;;5.40;99.90;;;;;;5106511;28;20023;-58
2020/12/01 03:25:12;;;;;;;48.83;20.13;;;5.40;99.90;;;;;;5105473;27;20028;-58
2020/12/01 03:27:38;;;;;;;46.10;20.92;;;5.50;99.90;;;;;;5098702;28;20440;-58
2020/12/01 03:30:05;;;;;;;53.38;20.92;;;5.50;99.90;;;;;;5091124;28;20020;-58
2020/12/01 03:32:31;;;;;;;51.35;22.33;;;5.60;99.90;;;;;;5090701;28;20053;-58
2020/12/01 03:34:57;;;;;;;59.15;25.75;;;5.50;99.90;;;;;;5093578;28;20067;-57
2020/12/01 03:37:23;;;;;;;54.92;24.55;;;5.60;99.90;;;;;;5107929;28;20040;-56
2020/12/01 03:39:49;;;;;;;53.75;26.10;;;5.70;99.90;;;;;;5091989;28;20514;-57
2020/12/01 03:42:14;;;;;;;58.50;25.83;;;5.70;99.90;;;;;;5091709;28;20024;-57
2020/12/01 03:44:40;;;;;;;66.82;28.73;;;5.70;99.90;;;;;;5107689;28;20043;-56
2020/12/01 03:47:05;;;;;;;57.20;26.23;;;5.80;99.90;;;;;;5111231;28;20031;-59
2020/12/01 03:49:31;;;;;;;56.58;25.95;;;5.80;99.90;;;;;;5109933;28;20032;-57
2020/12/01 03:51:57;;;;;;;55.95;26.75;;;5.80;99.90;;;;;;5104782;28;20544;-57
2020/12/01 03:54:22;;;;;;;51.50;25.42;;;5.80;99.90;;;;;;5107656;28;20509;-59
2020/12/01 03:56:48;;;;;;;59.10;28.52;;;5.90;99.90;;;;;;5110204;28;20027;-57
2020/12/01 03:59:13;;;;;;;53.88;25.77;;;5.90;99.90;;;;;;5111453;28;20077;-58
2020/12/01 04:01:39;;;;;;;58.80;27.83;;;5.90;99.90;;;;;;5097431;28;20451;-57
2020/12/01 04:04:04;;;;;;;58.85;27.27;;;5.90;99.90;;;;;;5106058;28;20487;-57
2020/12/01 04:06:30;;;;;;;57.33;28.70;;;6.00;99.90;;;;;;5110159;28;20231;-56
2020/12/01 04:08:55;;;;;;;61.53;28.30;;;6.00;99.90;;;;;;5109583;28;20042;-58
2020/12/01 04:11:24;;;;;;;54.40;27.15;;;5.90;99.90;;;;;;5110478;28;20041;-58
2020/12/01 04:13:50;;;;;;;60.83;30.23;;;5.90;99.90;;;;;;5111138;28;20582;-58
2020/12/01 04:16:15;;;;;;;59.58;27.88;;;6.00;99.90;;;;;;5094669;28;20115;-58
2020/12/01 04:18:41;;;;;;;55.83;26.92;;;6.00;99.90;;;;;;5090476;28;20107;-58
2020/12/01 04:21:06;;;;;;;60.50;28.25;;;6.00;99.90;;;;;;5115171;27;20045;-59
2020/12/01 04:23:32;;;;;;;62.78;29.73;;;6.00;99.90;;;;;;5104147;27;20529;-57
2020/12/01 04:25:57;;;;;;;57.92;28.23;;;6.00;99.90;;;;;;5090943;28;20035;-58
2020/12/01 04:28:23;;;;;;;57.40;28.60;;;6.00;99.90;;;;;;5090658;28;20038;-58
2020/12/01 04:30:48;;;;;;;58.05;27.60;;;6.10;99.90;;;;;;5101917;28;20043;-59
2020/12/01 04:33:14;;;;;;;60.55;27.08;;;6.10;99.90;;;;;;5110266;28;20024;-59
2020/12/01 04:35:39;;;;;;;65.95;27.02;;;6.10;99.90;;;;;;5109622;28;20031;-58
2020/12/01 04:38:06;;;;;;;56.92;28.05;;;6.10;99.90;;;;;;5103434;28;20031;-59
2020/12/01 04:40:37;;;;;;;55.08;25.77;;;6.10;99.90;;;;;;5110149;28;20030;-59
2020/12/01 04:43:12;;;;;;;54.50;25.00;;;6.10;99.90;;;;;;5101257;28;20032;-57
2020/12/01 04:45:41;;;;;;;61.67;29.25;;;6.10;99.90;;;;;;5100429;28;20064;-59
2020/12/01 04:48:38;;;;;;;52.33;26.38;;;6.10;99.90;;;;;;5092712;28;20047;-58
2020/12/01 04:51:38;;;;;;;49.63;24.85;;;6.10;99.90;;;;;;5101907;28;20028;-59
2020/12/01 04:54:19;;;;;;;57.78;25.67;;;6.20;99.90;;;;;;5107510;28;20405;-58
2020/12/01 04:57:13;;;;;;;47.15;23.85;;;6.20;99.90;;;;;;5102499;28;20382;-57
2020/12/01 04:59:56;;;;;;;47.58;23.92;;;6.20;99.90;;;;;;5110479;28;20016;-58
2020/12/01 05:02:36;;;;;;;50.63;22.65;;;6.20;99.90;;;;;;5109748;28;20019;-59
2020/12/01 05:05:27;;;;;;;53.63;24.17;;;6.20;99.90;;;;;;5108908;28;20018;-57
2020/12/01 05:08:17;;;;;;;42.72;22.85;;;6.20;99.90;;;;;;5109553;28;20446;-58
2020/12/01 05:10:47;;;;;;;43.97;22.08;;;6.20;99.90;;;;;;5105881;28;20071;-56
2020/12/01 05:13:22;;;;;;;42.20;23.13;;;6.20;99.90;;;;;;5109919;28;20023;-59
2020/12/01 05:15:54;;;;;;;40.13;21.55;;;6.20;99.90;;;;;;5102830;28;20036;-59
2020/12/01 05:18:24;;;;;;;45.25;18.65;;;6.20;99.90;;;;;;5092680;28;20024;-59
2020/12/01 05:21:03;;;;;;;38.33;19.58;;;6.30;99.90;;;;;;5105785;27;20028;-58
2020/12/01 05:23:40;;;;;;;36.75;16.50;;;6.20;99.90;;;;;;5088493;28;20048;-58
2020/12/01 05:26:12;;;;;;;36.85;14.10;;;6.30;99.90;;;;;;5103900;28;20497;-58
2020/12/01 05:28:53;;;;;;;37.92;13.25;;;6.30;99.90;;;;;;5109886;28;20034;-58
2020/12/01 05:31:25;;;;;;;36.10;13.55;;;6.30;99.90;;;;;;5109641;28;20031;-58
2020/12/01 05:34:05;;;;;;;30.25;12.55;;;6.30;99.90;;;;;;5105111;28;20038;-58
2020/12/01 05:36:36;;;;;;;27.15;12.85;;;6.30;99.90;;;;;;5103341;28;20080;-58
2020/12/01 05:39:13;;;;;;;34.22;12.55;;;6.40;99.90;;;;;;5094352;28;20044;-58
2020/12/01 05:41:40;;;;;;;28.77;11.73;;;6.40;99.90;;;;;;5089538;28;20106;-58
2020/12/01 05:44:18;;;;;;;25.42;11.43;;;6.40;99.90;;;;;;5089707;28;20023;-59
2020/12/01 05:47:11;;;;;;;34.42;11.43;;;6.40;99.90;;;;;;5101121;28;20398;-59
2020/12/01 05:50:03;;;;;;;39.22;14.10;;;6.40;99.90;;;;;;5100421;28;20114;-57
2020/12/01 05:52:41;;;;;;;32.60;12.82;;;6.40;99.90;;;;;;5109970;28;20410;-57
2020/12/01 05:55:17;;;;;;;33.40;13.05;;;6.40;99.90;;;;;;5112933;28;20035;-58
2020/12/01 05:57:43;;;;;;;31.60;13.63;;;6.40;99.90;;;;;;5113353;28;20031;-58
2020/12/01 06:00:24;;;;;;;30.80;14.02;;;6.40;99.90;;;;;;5108372;28;20042;-58
2020/12/01 06:03:08;;;;;;;34.83;14.05;;;6.40;99.90;;;;;;5099248;28;20080;-57
2020/12/01 06:05:39;;;;;;;30.40;15.60;;;6.40;99.90;;;;;;5099352;28;20450;-59
2020/12/01 06:08:29;;;;;;;33.85;13.88;;;6.40;99.90;;;;;;5106134;28;20042;-58
2020/12/01 06:11:09;;;;;;;42.30;16.17;;;6.40;99.90;;;;;;5101548;28;20085;-58
2020/12/01 06:13:44;;;;;;;29.90;14.52;;;6.40;99.90;;;;;;5112775;28;20031;-57
2020/12/01 06:16:28;;;;;;;42.90;17.48;;;6.40;99.90;;;;;;5093011;28;20028;-57
2020/12/01 06:18:57;;;;;;;;;;;6.40;99.90;;;;;;5095870;28;20055;-58
2020/12/01 06:22:03;;;;;;;36.53;15.68;;;6.40;99.90;;;;;;5103058;27;19912;-57
2020/12/01 06:24:47;;;;;;;38.47;16.02;;;6.40;99.90;;;;;;5092870;28;20094;-58
2020/12/01 06:27:12;;;;;;;31.00;14.65;;;6.50;99.90;;;;;;5092304;28;20024;-57
2020/12/01 06:29:44;;;;;;;41.05;14.88;;;6.40;99.90;;;;;;5094668;27;20727;-58
2020/12/01 06:32:49;;;;;;;39.03;16.77;;;6.40;99.90;;;;;;5099611;28;20020;-58
2020/12/01 06:35:31;;;;;;;39.70;15.88;;;6.40;99.90;;;;;;5096817;28;20087;-57
2020/12/01 06:38:12;;;;;;;36.47;14.95;;;6.40;99.90;;;;;;5109893;28;20039;-57
2020/12/01 06:40:55;;;;;;;33.67;14.98;;;6.40;99.90;;;;;;5107677;28;20020;-58
2020/12/01 06:43:41;;;;;;;34.20;16.55;;;6.50;99.90;;;;;;5101194;28;20386;-57
2020/12/01 06:46:35;;;;;;;35.38;16.17;;;6.40;99.90;;;;;;5098410;28;20031;-58
2020/12/01 06:49:02;;;;;;;38.58;16.45;;;6.40;99.90;;;;;;5091910;28;20028;-56
2020/12/01 06:51:28;;;;;;;37.83;16.50;;;6.40;99.90;;;;;;5102839;28;20030;-57
2020/12/01 06:54:09;;;;;;;42.47;17.48;;;6.40;99.90;;;;;;5104466;28;20027;-57
2020/12/01 06:56:34;;;;;;;40.95;17.83;;;6.50;99.90;;;;;;5109228;28;20140;-59
2020/12/01 06:59:12;;;;;;;49.20;20.42;;;6.40;99.90;;;;;;5106977;28;20580;-58
2020/12/01 07:01:40;;;;;;;49.22;23.17;;;6.40;99.90;;;;;;5103029;28;20040;-53
2020/12/01 07:04:22;;;;;;;42.55;20.45;;;6.40;99.90;;;;;;5096554;28;20052;-57
2020/12/01 07:06:55;;;;;;;49.03;20.52;;;6.30;99.90;;;;;;5104310;28;20390;-57
2020/12/01 07:09:28;;;;;;;55.28;22.88;;;6.30;99.90;;;;;;5104675;28;20030;-56
2020/12/01 07:11:59;;;;;;;42.88;20.27;;;6.20;99.90;;;;;;5094261;28;20058;-57
2020/12/01 07:14:45;;;;;;;48.88;21.08;;;6.20;99.90;;;;;;5106804;27;20064;-55
2020/12/01 07:17:25;;;;;;;47.38;20.88;;;6.20;99.90;;;;;;5085980;28;20483;-55
2020/12/01 07:20:15;;;;;;;50.60;22.33;;;6.20;99.90;;;;;;5093101;28;20111;-56
2020/12/01 07:22:54;;;;;;;39.15;21.00;;;6.20;99.90;;;;;;5110520;28;20475;-55
2020/12/01 07:25:39;;;;;;;48.88;21.17;;;6.20;99.90;;;;;;5111603;28;20120;-55
2020/12/01 07:28:04;;;;;;;38.15;20.00;;;6.20;99.90;;;;;;5102930;28;20032;-55
2020/12/01 07:30:33;;;;;;;45.63;22.30;;;6.10;99.90;;;;;;5097301;28;20031;-54
2020/12/01 07:33:01;;;;;;;54.72;24.15;;;6.10;99.90;;;;;;5092648;28;20034;-56
2020/12/01 07:35:41;;;;;;;52.05;24.63;;;6.00;99.90;;;;;;5099177;28;20533;-53
2020/12/01 07:38:06;;;;;;;49.90;23.25;;;6.00;99.90;;;;;;5100137;28;20108;-52
2020/12/01 07:40:42;;;;;;;52.63;24.02;;;6.00;99.90;;;;;;5096867;28;20035;-53
2020/12/01 07:43:11;;;;;;;61.10;25.55;;;5.90;99.90;;;;;;5109969;28;20055;-58
2020/12/01 07:45:37;;;;;;;59.13;26.20;;;5.90;99.90;;;;;;5090465;28;20394;-58
2020/12/01 07:48:03;;;;;;;52.85;25.85;;;5.80;99.90;;;;;;5101020;28;20039;-53
2020/12/01 07:50:31;;;;;;;58.85;26.20;;;5.80;99.90;;;;;;5089133;28;20079;-57
2020/12/01 07:53:09;;;;;;;60.83;26.20;;;5.80;99.90;;;;;;5096572;28;20502;-54
2020/12/01 07:56:12;;;;;;;72.57;28.35;;;5.80;99.90;;;;;;5110753;28;20038;-53
2020/12/01 07:58:38;;;;;;;72.47;28.75;;;5.70;99.90;;;;;;5107428;28;20592;-54
2020/12/01 08:01:14;;;;;;;69.85;30.33;;;5.70;99.90;;;;;;5111321;28;20027;-55
2020/12/01 08:03:39;;;;;;;84.22;29.88;;;5.70;99.90;;;;;;5108933;28;20031;-58
2020/12/01 08:06:11;;;;;;;76.30;29.92;;;5.70;99.90;;;;;;5122284;27;20534;-55
2020/12/01 08:08:38;;;;;;;71.50;29.85;;;5.70;99.90;;;;;;5118674;27;20205;-55
2020/12/01 08:11:06;;;;;;;64.95;28.88;;;5.70;99.90;;;;;;5111534;28;20418;-55
2020/12/01 08:13:35;;;;;;;62.00;28.48;;;5.70;99.90;;;;;;5110386;28;20030;-56
2020/12/01 08:16:13;;;;;;;74.78;29.33;;;5.80;99.90;;;;;;5110436;28;20445;-57
2020/12/01 08:18:39;;;;;;;66.78;26.27;;;5.90;99.90;;;;;;5110420;28;20028;-56
2020/12/01 08:21:06;;;;;;;64.25;27.67;;;5.90;99.90;;;;;;5117083;27;20034;-57
2020/12/01 08:23:33;;;;;;;57.22;24.60;;;5.90;99.90;;;;;;5116597;27;20301;-60
2020/12/01 08:26:26;;;;;;;67.70;27.27;;;5.90;99.90;;;;;;5110199;27;20020;-61
2020/12/01 08:29:07;;;;;;;57.65;26.40;;;6.00;99.90;;;;;;5092084;27;20071;-60
2020/12/01 08:31:55;;;;;;;72.07;30.85;;;6.00;99.90;;;;;;5090062;28;20402;-60
2020/12/01 08:34:36;;;;;;;69.75;28.80;;;6.00;99.90;;;;;;5090366;28;20441;-61
2020/12/01 08:37:11;;;;;;;69.35;28.50;;;6.00;99.90;;;;;;5097140;28;20035;-58
2020/12/01 08:40:06;;;;;;;68.47;28.65;;;6.00;99.90;;;;;;5099219;28;20027;-60
2020/12/01 08:42:37;;;;;;;61.72;25.08;;;6.00;99.90;;;;;;5090327;28;20020;-59
2020/12/01 08:45:29;;;;;;;69.32;27.08;;;6.10;99.90;;;;;;5089263;28;20145;-59
2020/12/01 08:48:03;;;;;;;59.00;26.45;;;6.10;99.90;;;;;;5090109;28;20024;-59
2020/12/01 08:50:35;;;;;;;57.50;26.98;;;6.20;99.90;;;;;;5095464;28;20027;-60
2020/12/01 08:53:09;;;;;;;64.57;26.50;;;6.20;99.90;;;;;;5103191;28;20067;-59
2020/12/01 08:55:43;;;;;;;62.67;26.30;;;6.30;99.90;;;;;;5089476;28;20409;-60
2020/12/01 08:58:22;;;;;;;58.83;27.00;;;6.30;99.90;;;;;;5089232;28;20117;-60
2020/12/01 09:01:15;;;;;;;56.92;25.80;;;6.30;99.90;;;;;;5089784;28;20032;-59
2020/12/01 09:03:54;;;;;;;62.47;26.65;;;6.30;99.90;;;;;;5088000;28;20153;-60
2020/12/01 09:06:30;;;;;;;59.60;25.08;;;6.40;99.90;;;;;;5100708;28;20024;-59
2020/12/01 09:09:02;;;;;;;63.15;26.15;;;6.40;99.90;;;;;;5103861;28;20034;-61
2020/12/01 09:14:56;;;;;;;68.10;25.13;;;6.40;99.90;;;;;;5109495;28;20500;-60
2020/12/01 09:18:05;;;;;;;59.17;25.65;;;6.40;99.90;;;;;;5108856;28;20035;-59
2020/12/01 09:21:00;;;;;;;62.75;25.75;;;6.40;99.90;;;;;;5099594;28;20028;-59
2020/12/01 09:23:32;;;;;;;75.95;27.40;;;6.40;99.90;;;;;;5099578;28;20051;-59
2020/12/01 09:25:59;;;;;;;55.95;25.20;;;6.40;99.90;;;;;;5103568;28;20032;-59
2020/12/01 09:28:28;;;;;;;58.83;26.42;;;6.40;99.90;;;;;;5088395;28;20077;-58
2020/12/01 09:31:00;;;;;;;79.07;32.65;;;6.40;99.90;;;;;;5090618;28;20119;-60
2020/12/01 09:33:26;;;;;;;79.28;32.60;;;6.40;99.90;;;;;;5109689;28;20023;-61
2020/12/01 09:35:51;;;;;;;81.65;34.65;;;6.40;99.90;;;;;;5098119;28;20085;-59
2020/12/01 09:38:18;;;;;;;89.18;34.28;;;6.50;99.90;;;;;;5097726;28;20036;-61
2020/12/01 09:40:49;;;;;;;64.57;28.02;;;6.60;99.90;;;;;;5106988;28;20042;-61
2020/12/01 09:43:22;;;;;;;71.18;28.52;;;6.60;99.90;;;;;;5088928;28;20104;-58
2020/12/01 09:45:50;;;;;;;72.57;29.43;;;6.70;99.90;;;;;;5088714;28;20028;-59
2020/12/01 09:48:24;;;;;;;67.22;29.75;;;6.80;99.90;;;;;;5089137;28;20024;-60
2020/12/01 09:50:50;;;;;;;70.07;29.85;;;6.90;99.90;;;;;;5088211;28;20032;-58
2020/12/01 09:56:11;;;;;;;66.10;27.95;;;6.90;99.90;;;;;;5088565;28;20031;-60
2020/12/01 10:02:53;;;;;;;69.03;28.65;;;7.00;99.90;;;;;;5088187;28;20043;-58
2020/12/01 10:04:53;;;;;;;66.45;25.73;;;7.00;99.90;;;;;;5089017;28;20031;-59
2020/12/01 10:12:59;;;;;;;72.28;28.63;;;7.30;99.90;;;;;;5085866;28;20028;-59
2020/12/01 10:15:53;;;;;;;68.65;30.08;;;7.40;99.90;;;;;;5087101;28;20399;-60
2020/12/01 10:26:31;;;;;;;67.80;28.10;;;7.40;99.90;;;;;;5087809;28;20032;-60
2020/12/01 10:32:13;;;;;;;71.63;27.98;;;7.60;99.90;;;;;;5086939;28;20233;-61
2020/12/01 10:37:06;;;;;;;53.60;24.33;;;7.70;99.90;;;;;;5088922;28;20400;-59
2020/12/01 10:39:32;;;;;;;61.58;25.27;;;7.70;99.90;;;;;;5097102;28;20034;-59
2020/12/01 10:41:57;;;;;;;69.10;26.60;;;7.70;99.90;;;;;;5112281;28;20058;-58
2020/12/01 10:44:23;;;;;;;67.63;25.77;;;7.70;99.90;;;;;;5112923;27;20045;-61
2020/12/01 10:46:50;;;;;;;61.72;25.63;;;7.70;99.90;;;;;;5112334;27;20489;-60
2020/12/01 10:49:17;;;;;;;58.05;24.73;;;7.70;99.90;;;;;;5105727;28;20028;-60
2020/12/01 10:51:48;;;;;;;74.03;25.05;;;7.70;99.90;;;;;;5099448;28;20448;-61
2020/12/01 10:54:14;;;;;;;78.55;26.92;;;7.70;99.90;;;;;;5102344;28;20428;-59
2020/12/01 10:56:39;;;;;;;72.30;25.10;;;7.80;99.90;;;;;;5098909;28;20032;-61
2020/12/01 10:59:05;;;;;;;62.28;22.50;;;7.80;99.90;;;;;;5100935;28;20459;-61
2020/12/01 11:01:33;;;;;;;55.35;21.88;;;7.80;99.90;;;;;;5096389;28;20372;-61
2020/12/01 11:04:00;;;;;;;49.30;19.08;;;7.90;99.90;;;;;;5097017;28;20510;-61
2020/12/01 11:06:25;;;;;;;46.00;20.45;;;7.90;99.90;;;;;;5094730;28;20585;-60
2020/12/01 11:08:51;;;;;;;53.17;20.00;;;7.90;99.90;;;;;;5096123;28;20016;-61
2020/12/01 11:11:19;;;;;;;61.80;21.98;;;7.80;99.90;;;;;;5095368;28;20512;-58
2020/12/01 11:13:44;;;;;;;53.63;19.33;;;7.90;99.90;;;;;;5094860;28;20031;-60
2020/12/01 11:16:11;;;;;;;51.83;18.27;;;7.90;99.90;;;;;;5088355;28;20028;-61
2020/12/01 11:18:37;;;;;;;43.95;16.08;;;7.90;99.90;;;;;;5091692;28;20049;-61
2020/12/01 11:21:02;;;;;;;43.05;17.25;;;8.00;99.90;;;;;;5090715;28;20028;-61
2020/12/01 11:23:28;;;;;;;44.90;16.50;;;8.00;99.90;;;;;;5093479;28;20028;-58
2020/12/01 11:25:53;;;;;;;46.65;17.70;;;8.00;99.90;;;;;;5096397;28;20022;-60
2020/12/01 11:28:19;;;;;;;48.13;17.40;;;8.00;99.90;;;;;;5091094;28;20338;-60
2020/12/01 11:30:45;;;;;;;46.25;17.67;;;8.00;99.90;;;;;;5088082;28;20051;-61
2020/12/01 11:33:10;;;;;;;50.80;18.17;;;8.00;99.90;;;;;;5090068;28;20032;-60
2020/12/01 11:35:36;;;;;;;45.67;17.00;;;8.10;99.90;;;;;;5107544;28;20031;-59
2020/12/01 11:38:01;;;;;;;46.25;17.88;;;8.10;99.90;;;;;;5107266;28;20039;-59
2020/12/01 11:40:27;;;;;;;33.10;15.18;;;8.20;99.90;;;;;;5087864;28;20027;-59
2020/12/01 11:42:53;;;;;;;36.50;15.02;;;8.10;99.90;;;;;;5091743;28;20032;-59
2020/12/01 11:45:19;;;;;;;30.92;13.05;;;8.20;99.90;;;;;;5096601;28;20015;-60
2020/12/01 11:47:44;;;;;;;33.53;13.32;;;8.20;99.90;;;;;;5102217;28;20035;-59
2020/12/01 11:50:11;;;;;;;36.08;14.25;;;8.20;99.90;;;;;;5103300;28;20024;-60
2020/12/01 11:52:37;;;;;;;39.33;14.38;;;8.20;99.90;;;;;;5105269;28;20394;-59
2020/12/01 11:55:05;;;;;;;32.60;14.57;;;8.20;99.90;;;;;;5107562;28;20028;-61
2020/12/01 11:57:31;;;;;;;24.10;14.20;;;8.10;99.90;;;;;;5108057;28;20032;-59
2020/12/01 11:59:56;;;;;;;33.58;14.82;;;8.10;99.90;;;;;;5107127;28;20028;-61
2020/12/01 12:02:22;;;;;;;32.35;15.25;;;8.10;99.90;;;;;;5107742;28;20028;-59
2020/12/01 12:04:47;;;;;;;35.63;15.05;;;8.10;99.90;;;;;;5101434;28;20520;-60
2020/12/01 12:07:13;;;;;;;34.72;15.55;;;8.00;99.90;;;;;;5106102;28;20710;-61
2020/12/01 12:09:39;;;;;;;44.35;17.15;;;8.00;99.90;;;;;;5096949;28;20054;-59
2020/12/01 12:12:04;;;;;;;39.50;17.52;;;8.00;99.90;;;;;;5091383;28;20433;-60
2020/12/01 12:14:30;;;;;;;33.75;16.25;;;8.00;99.90;;;;;;5097906;28;20031;-60
2020/12/01 12:16:55;;;;;;;36.03;14.57;;;8.00;99.90;;;;;;5107237;28;20024;-60
2020/12/01 12:19:21;;;;;;;35.20;16.25;;;8.00;99.90;;;;;;5107326;28;20521;-59
2020/12/01 12:21:47;;;;;;;40.25;15.63;;;8.00;99.90;;;;;;5090723;27;20502;-61
2020/12/01 12:24:12;;;;;;;33.90;15.60;;;8.00;99.90;;;;;;5092302;27;20035;-60
2020/12/01 12:26:38;;;;;;;33.90;15.75;;;8.00;99.90;;;;;;5098246;28;20020;-60
2020/12/01 12:29:04;;;;;;;31.50;14.80;;;8.00;99.90;;;;;;5098342;28;20482;-60
2020/12/01 12:31:29;;;;;;;41.33;17.75;;;8.00;99.90;;;;;;5100155;28;20021;-60
2020/12/01 12:33:55;;;;;;;37.95;15.75;;;8.00;99.90;;;;;;5098568;28;20058;-59
2020/12/01 12:36:20;;;;;;;39.42;16.13;;;8.00;99.90;;;;;;5099900;28;20035;-60
2020/12/01 12:38:46;;;;;;;40.58;15.52;;;8.10;99.90;;;;;;5099018;28;20031;-60
2020/12/01 12:41:12;;;;;;;38.78;15.80;;;8.00;99.90;;;;;;5099899;28;20016;-59
2020/12/01 12:43:37;;;;;;;34.55;15.10;;;8.10;99.90;;;;;;5097720;28;20030;-61
2020/12/01 12:46:03;;;;;;;45.13;17.27;;;8.00;99.90;;;;;;5098904;28;20475;-60
2020/12/01 12:48:29;;;;;;;48.85;17.90;;;8.00;99.90;;;;;;5106860;28;20043;-58
2020/12/01 12:50:55;;;;;;;41.75;16.98;;;8.00;99.90;;;;;;5098471;28;20085;-59
2020/12/01 12:53:21;;;;;;;39.53;17.17;;;8.00;99.90;;;;;;5093270;28;20028;-60
2020/12/01 12:55:46;;;;;;;35.25;16.20;;;8.00;99.90;;;;;;5091023;28;20031;-59
2020/12/01 12:58:12;;;;;;;42.38;16.35;;;8.00;99.90;;;;;;5096776;27;20027;-60
2020/12/01 13:00:37;;;;;;;43.88;17.40;;;8.10;99.90;;;;;;5109543;28;20111;-59
2020/12/01 13:03:03;;;;;;;38.70;16.67;;;8.10;99.90;;;;;;5106190;28;20020;-60
2020/12/01 13:05:30;;;;;;;41.88;16.73;;;8.10;99.90;;;;;;5109505;28;20022;-60
2020/12/01 13:07:57;;;;;;;37.83;17.60;;;8.10;99.90;;;;;;5104508;28;20028;-59
2020/12/01 13:10:23;;;;;;;34.10;14.95;;;8.20;99.90;;;;;;5099104;28;20118;-62
2020/12/01 13:12:48;;;;;;;40.67;16.38;;;8.20;99.90;;;;;;5109572;28;20107;-61
2020/12/01 13:15:15;;;;;;;41.15;17.33;;;8.20;99.90;;;;;;5109735;28;20035;-61
2020/12/01 13:17:40;;;;;;;35.03;15.30;;;8.10;99.90;;;;;;5106512;28;20131;-61
2020/12/01 13:20:11;;;;;;;43.53;16.98;;;8.20;99.90;;;;;;5105525;28;20046;-60
2020/12/01 13:22:37;;;;;;;36.50;16.25;;;8.20;99.90;;;;;;5092115;28;20038;-60
2020/12/01 13:25:03;;;;;;;42.47;17.45;;;8.20;99.90;;;;;;5108895;28;20023;-61
2020/12/01 13:27:28;;;;;;;52.28;18.40;;;8.20;99.90;;;;;;5100106;28;20020;-59